NCAR-RAP Real-Time Weather Data

Output produced by METARs form (22 January 2018  03:48 UTC)
found at http://weather.rap.ucar.edu/surface/
 
Conditions at: KSPG observed 22 January 2018  02:53 UTC
Temperature: 16.1°C (61°F)
Dewpoint: 13.9°C (57°F) [RH = 87%]
Pressure (altimeter): 30.14 inches Hg (1020.7 mb)
[Sea-level pressure: 1020.5 mb]
Winds: from the ESE (120 degrees) at 5 MPH (4 knots; 2.1 m/s)
Visibility: 10 or more miles (16+ km)
Ceiling: at least 12,000 feet AGL
Clouds: sky clear below 12,000 feet AGL
Present Weather: automated observation with no human augmentation;
there may or may not be significant weather present at this time
KSPG 220253Z AUTO 12004KT 10SM CLR 16/14 A3014 RMK AO2 SLP205 T01610139 53007

Conditions at: KSPG observed 22 January 2018  01:53 UTC
Temperature: 18.9°C (66°F)
Dewpoint: 13.9°C (57°F) [RH = 73%]
Pressure (altimeter): 30.13 inches Hg (1020.4 mb)
[Sea-level pressure: 1020.3 mb]
Winds: from the NE (40 degrees) at 6 MPH (5 knots; 2.6 m/s)
Visibility: 10 or more miles (16+ km)
Ceiling: at least 12,000 feet AGL
Clouds: sky clear below 12,000 feet AGL
Present Weather: automated observation with no human augmentation;
there may or may not be significant weather present at this time
KSPG 220153Z AUTO 04005KT 10SM CLR 19/14 A3013 RMK AO2 SLP203 T01890139

Conditions at: KSPG observed 22 January 2018  00:53 UTC
Temperature: 19.4°C (67°F)
Dewpoint: 13.3°C (56°F) [RH = 68%]
Pressure (altimeter): 30.12 inches Hg (1020.1 mb)
[Sea-level pressure: 1019.9 mb]
Winds: from the NNE (20 degrees) at 5 MPH (4 knots; 2.1 m/s)
Visibility: 10 or more miles (16+ km)
Ceiling: at least 12,000 feet AGL
Clouds: sky clear below 12,000 feet AGL
Present Weather: no significant weather observed at this time
KSPG 220053Z 02004KT 10SM CLR 19/13 A3012 RMK AO2 SLP199 T01940133

Conditions at: KSPG observed 21 January 2018  23:53 UTC
Temperature: 18.9°C (66°F)
Dewpoint: 13.9°C (57°F) [RH = 73%]
Pressure (altimeter): 30.12 inches Hg (1020.1 mb)
[Sea-level pressure: 1019.8 mb]
Winds: from the NE (40 degrees) at 6 MPH (5 knots; 2.6 m/s)
Visibility: 10 or more miles (16+ km)
Ceiling: at least 12,000 feet AGL
Clouds: sky clear below 12,000 feet AGL
Present Weather: no significant weather observed at this time
KSPG 212353Z 04005KT 10SM CLR 19/14 A3012 RMK AO2 SLP198 T01890139 10222 20178 53003

Conditions at: KSPG observed 21 January 2018  22:53 UTC
Temperature: 20.0°C (68°F)
Dewpoint: 13.3°C (56°F) [RH = 65%]
Pressure (altimeter): 30.11 inches Hg (1019.7 mb)
[Sea-level pressure: 1019.6 mb]
Winds: from the NE (50 degrees) at 6 MPH (5 knots; 2.6 m/s)
Visibility: 10 or more miles (16+ km)
Ceiling: at least 12,000 feet AGL
Clouds: sky clear below 12,000 feet AGL
Present Weather: no significant weather observed at this time
KSPG 212253Z 05005KT 10SM CLR 20/13 A3011 RMK AO2 SLP196 T02000133

Conditions at: KSPG observed 21 January 2018  21:53 UTC
Temperature: 20.6°C (69°F)
Dewpoint: 13.3°C (56°F) [RH = 63%]
Pressure (altimeter): 30.11 inches Hg (1019.7 mb)
[Sea-level pressure: 1019.4 mb]
Winds: from the NE (50 degrees) at 8 MPH (7 knots; 3.6 m/s)
Visibility: 10 or more miles (16+ km)
Ceiling: at least 12,000 feet AGL
Clouds: sky clear below 12,000 feet AGL
Present Weather: no significant weather observed at this time
KSPG 212153Z 05007KT 10SM CLR 21/13 A3011 RMK AO2 SLP194 T02060133

Conditions at: KSPG observed 21 January 2018  20:53 UTC
Temperature: 21.7°C (71°F)
Dewpoint: 13.9°C (57°F) [RH = 61%]
Pressure (altimeter): 30.11 inches Hg (1019.7 mb)
[Sea-level pressure: 1019.5 mb]
Winds: from the NE (50 degrees) at 6 MPH (5 knots; 2.6 m/s)
Visibility: 10 or more miles (16+ km)
Ceiling: at least 12,000 feet AGL
Clouds: sky clear below 12,000 feet AGL
Present Weather: no significant weather observed at this time
KSPG 212053Z 05005KT 10SM CLR 22/14 A3011 RMK AO2 SLP195 T02170139 56022

Conditions at: KSPG observed 21 January 2018  19:53 UTC
Temperature: 20.6°C (69°F)
Dewpoint: 13.3°C (56°F) [RH = 63%]
Pressure (altimeter): 30.11 inches Hg (1019.7 mb)
[Sea-level pressure: 1019.6 mb]
Winds: from the ENE (60 degrees) at 8 MPH (7 knots; 3.6 m/s)
Visibility: 10 or more miles (16+ km)
Ceiling: at least 12,000 feet AGL
Clouds: sky clear below 12,000 feet AGL
Present Weather: no significant weather observed at this time
KSPG 211953Z 06007KT 10SM CLR 21/13 A3011 RMK AO2 SLP196 T02060133

Conditions at: KSPG observed 21 January 2018  18:53 UTC
Temperature: 21.7°C (71°F)
Dewpoint: 14.4°C (58°F) [RH = 63%]
Pressure (altimeter): 30.14 inches Hg (1020.7 mb)
[Sea-level pressure: 1020.5 mb]
Winds: from the ENE (60 degrees) at 6 MPH (5 knots; 2.6 m/s)
Visibility: 10 or more miles (16+ km)
Ceiling: at least 12,000 feet AGL
Clouds: sky clear below 12,000 feet AGL
Present Weather: no significant weather observed at this time
KSPG 211853Z 06005KT 10SM CLR 22/14 A3014 RMK AO2 SLP205 T02170144

Conditions at: KSPG observed 21 January 2018  17:53 UTC
Temperature: 21.7°C (71°F)
Dewpoint: 15.0°C (59°F) [RH = 66%]
Pressure (altimeter): 30.17 inches Hg (1021.8 mb)
[Sea-level pressure: 1021.7 mb]
Winds: from the NE (50 degrees) at 5 MPH (4 knots; 2.1 m/s)
Visibility: 10 or more miles (16+ km)
Ceiling: at least 12,000 feet AGL
Clouds: sky clear below 12,000 feet AGL
Present Weather: no significant weather observed at this time
KSPG 211753Z 05004KT 10SM CLR 22/15 A3017 RMK AO2 SLP217 T02170150 10217 20139 58020

Conditions at: KSPG observed 21 January 2018  16:53 UTC
Temperature: 19.4°C (67°F)
Dewpoint: 13.9°C (57°F) [RH = 71%]
Pressure (altimeter): 30.21 inches Hg (1023.1 mb)
[Sea-level pressure: 1022.9 mb]
Winds: from the ENE (60 degrees) at 5 MPH (4 knots; 2.1 m/s)
Visibility: 10 or more miles (16+ km)
Ceiling: at least 12,000 feet AGL
Clouds: scattered clouds at 4500 feet AGL
Present Weather: no significant weather observed at this time
KSPG 211653Z 06004KT 10SM SCT045 19/14 A3021 RMK AO2 SLP229 T01940139

Conditions at: KSPG observed 21 January 2018  15:53 UTC
Temperature: 18.3°C (65°F)
Dewpoint: 13.3°C (56°F) [RH = 73%]
Pressure (altimeter): 30.23 inches Hg (1023.8 mb)
[Sea-level pressure: 1023.8 mb]
Winds: from the ENE (60 degrees) at 5 MPH (4 knots; 2.1 m/s)
Visibility: 10 or more miles (16+ km)
Ceiling: at least 12,000 feet AGL
Clouds: sky clear below 12,000 feet AGL
Present Weather: no significant weather observed at this time
KSPG 211553Z 06004KT 10SM CLR 18/13 A3023 RMK AO2 SLP238 T01830133

Conditions at: KSPG observed 21 January 2018  14:53 UTC
Temperature: 16.7°C (62°F)
Dewpoint: 12.8°C (55°F) [RH = 78%]
Pressure (altimeter): 30.23 inches Hg (1023.8 mb)
[Sea-level pressure: 1023.7 mb]
Winds: calm
Visibility: 10 or more miles (16+ km)
Ceiling: at least 12,000 feet AGL
Clouds: sky clear below 12,000 feet AGL
Present Weather: no significant weather observed at this time
KSPG 211453Z 00000KT 10SM CLR 17/13 A3023 RMK AO2 SLP237 T01670128 53013

Conditions at: KSPG observed 21 January 2018  13:53 UTC
Temperature: 15.0°C (59°F)
Dewpoint: 12.8°C (55°F) [RH = 87%]
Pressure (altimeter): 30.22 inches Hg (1023.5 mb)
[Sea-level pressure: 1023.3 mb]
Winds: from the ENE (70 degrees) at 5 MPH (4 knots; 2.1 m/s)
Visibility: 7 miles (11 km)
Ceiling: at least 12,000 feet AGL
Clouds: sky clear below 12,000 feet AGL
Present Weather: no significant weather observed at this time
KSPG 211353Z 07004KT 7SM CLR 15/13 A3022 RMK AO2 SLP233 T01500128

Conditions at: KSPG observed 21 January 2018  12:53 UTC
Temperature: 13.9°C (57°F)
Dewpoint: 12.2°C (54°F) [RH = 89%]
Pressure (altimeter): 30.21 inches Hg (1023.1 mb)
[Sea-level pressure: 1022.8 mb]
Winds: from the NNE (30 degrees) at 6 MPH (5 knots; 2.6 m/s)
Visibility: 4 miles (6 km)
Ceiling: at least 12,000 feet AGL
Clouds: sky clear below 12,000 feet AGL
Present Weather: BR  (mist)
KSPG 211253Z 03005KT 4SM BR CLR 14/12 A3021 RMK AO2 LTG DSNT NW SLP228 T01390122

Conditions at: KSPG observed 21 January 2018  11:53 UTC
Temperature: 13.9°C (57°F)
Dewpoint: 11.7°C (53°F) [RH = 87%]
Pressure (altimeter): 30.19 inches Hg (1022.4 mb)
[Sea-level pressure: 1022.4 mb]
Winds: from the ENE (70 degrees) at 5 MPH (4 knots; 2.1 m/s)
Visibility: 10 or more miles (16+ km)
Ceiling: at least 12,000 feet AGL
Clouds: sky clear below 12,000 feet AGL
Present Weather: no significant weather observed at this time
KSPG 211153Z 07004KT 10SM CLR 14/12 A3019 RMK AO2 SLP224 T01390117 10150 20139 50005

Conditions at: KSPG observed 21 January 2018  10:53 UTC
Temperature: 13.9°C (57°F)
Dewpoint: 11.7°C (53°F) [RH = 87%]
Pressure (altimeter): 30.20 inches Hg (1022.8 mb)
[Sea-level pressure: 1022.4 mb]
Winds: from the N (10 degrees) at 3 MPH (3 knots; 1.6 m/s)
Visibility: 10 or more miles (16+ km)
Ceiling: at least 12,000 feet AGL
Clouds: few clouds at 3600 feet AGL
Present Weather: automated observation with no human augmentation;
there may or may not be significant weather present at this time
KSPG 211053Z AUTO 01003KT 10SM FEW036 14/12 A3020 RMK AO2 SLP224 T01390117

Conditions at: KSPG observed 21 January 2018  09:53 UTC
Temperature: 14.4°C (58°F)
Dewpoint: 11.7°C (53°F) [RH = 84%]
Pressure (altimeter): 30.19 inches Hg (1022.4 mb)
[Sea-level pressure: 1022.2 mb]
Winds: from the NE (40 degrees) at 3 MPH (3 knots; 1.6 m/s)
Visibility: 10 or more miles (16+ km)
Ceiling: 3500 feet AGL
Clouds: broken clouds at 3500 feet AGL
Present Weather: automated observation with no human augmentation;
there may or may not be significant weather present at this time
KSPG 210953Z AUTO 04003KT 10SM BKN035 14/12 A3019 RMK AO2 SLP222 T01440117

Conditions at: KSPG observed 21 January 2018  08:53 UTC
Temperature: 14.4°C (58°F)
Dewpoint: 11.7°C (53°F) [RH = 84%]
Pressure (altimeter): 30.18 inches Hg (1022.1 mb)
[Sea-level pressure: 1021.9 mb]
Winds: from the NNE (20 degrees) at 6 MPH (5 knots; 2.6 m/s)
Visibility: 10 or more miles (16+ km)
Ceiling: at least 12,000 feet AGL
Clouds: sky clear below 12,000 feet AGL
Present Weather: automated observation with no human augmentation;
there may or may not be significant weather present at this time
KSPG 210853Z AUTO 02005KT 10SM CLR 14/12 A3018 RMK AO2 SLP219 T01440117 56010

Conditions at: KSPG observed 21 January 2018  07:53 UTC
Temperature: 14.4°C (58°F)
Dewpoint: 11.7°C (53°F) [RH = 84%]
Pressure (altimeter): 30.19 inches Hg (1022.4 mb)
[Sea-level pressure: 1022.1 mb]
Winds: from the ENE (60 degrees) at 5 MPH (4 knots; 2.1 m/s)
Visibility: 10 or more miles (16+ km)
Ceiling: at least 12,000 feet AGL
Clouds: few clouds at 3900 feet AGL
few clouds at 11000 feet AGL
Present Weather: automated observation with no human augmentation;
there may or may not be significant weather present at this time
KSPG 210753Z AUTO 06004KT 10SM FEW039 FEW110 14/12 A3019 RMK AO2 SLP221 T01440117

Conditions at: KSPG observed 21 January 2018  06:53 UTC
Temperature: 15.0°C (59°F)
Dewpoint: 11.1°C (52°F) [RH = 77%]
Pressure (altimeter): 30.20 inches Hg (1022.8 mb)
[Sea-level pressure: 1022.5 mb]
Winds: from the NNE (20 degrees) at 7 MPH (6 knots; 3.1 m/s)
Visibility: 10 or more miles (16+ km)
Ceiling: at least 12,000 feet AGL
Clouds: sky clear below 12,000 feet AGL
Present Weather: automated observation with no human augmentation;
there may or may not be significant weather present at this time
KSPG 210653Z AUTO 02006KT 10SM CLR 15/11 A3020 RMK AO2 SLP225 T01500111

Conditions at: KSPG observed 21 January 2018  05:53 UTC
Temperature: 15.0°C (59°F)
Dewpoint: 11.1°C (52°F) [RH = 77%]
Pressure (altimeter): 30.21 inches Hg (1023.1 mb)
[Sea-level pressure: 1022.9 mb]
Winds: from the NNE (30 degrees) at 6 MPH (5 knots; 2.6 m/s)
Visibility: 10 or more miles (16+ km)
Ceiling: at least 12,000 feet AGL
Clouds: sky clear below 12,000 feet AGL
Present Weather: automated observation with no human augmentation;
there may or may not be significant weather present at this time
KSPG 210553Z AUTO 03005KT 10SM CLR 15/11 A3021 RMK AO2 SLP229 T01500111 10161 20144 58008

Conditions at: KSPG observed 21 January 2018  04:53 UTC
Temperature: 15.6°C (60°F)
Dewpoint: 10.6°C (51°F) [RH = 72%]
Pressure (altimeter): 30.23 inches Hg (1023.8 mb)
[Sea-level pressure: 1023.7 mb]
Winds: from the NNE (20 degrees) at 3 MPH (3 knots; 1.6 m/s)
Visibility: 10 or more miles (16+ km)
Ceiling: at least 12,000 feet AGL
Clouds: sky clear below 12,000 feet AGL
Present Weather: automated observation with no human augmentation;
there may or may not be significant weather present at this time
KSPG 210453Z AUTO 02003KT 10SM CLR 16/11 A3023 RMK AO2 SLP237 T01560106 401830094

Conditions at: KSPG observed 21 January 2018  03:53 UTC
Temperature: 15.0°C (59°F)
Dewpoint: 10.6°C (51°F) [RH = 75%]
Pressure (altimeter): 30.22 inches Hg (1023.5 mb)
[Sea-level pressure: 1023.3 mb]
Winds: from the NNE (30 degrees) at 6 MPH (5 knots; 2.6 m/s)
Visibility: 10 or more miles (16+ km)
Ceiling: at least 12,000 feet AGL
Clouds: sky clear below 12,000 feet AGL
Present Weather: automated observation with no human augmentation;
there may or may not be significant weather present at this time
KSPG 210353Z AUTO 03005KT 10SM CLR 15/11 A3022 RMK AO2 SLP233 T01500106